Have a Safe July 4th! 

Flight Track Log - Related Links

Times and Time Zones

All times are in EDT time to prevent confusion due to time zone crossing. See the TAM3374 flight status page for this flight to view local times or setup timezone preferences in your user account.

Time Position Orientation Groundspeed Altitude Reporting Facility
EDT Latitude Longitude Course Direction KTS MPH feet Rate Location/Type
Wed 09:35:52 PM -22.7820 -43.1930 60° Northeast 201 231 1,700  Level FlightAware ADS-B
Wed 09:36:07 PM -22.7710 -43.1790 50° Northeast 224 258 2,500 3,867 Climbing FlightAware ADS-B
Wed 09:36:37 PM -22.7370 -43.1590 28° Northeast 244 281 4,600 3,600 Climbing FlightAware ADS-B
Wed 09:37:02 PM -22.7200 -43.1420 43° Northeast 253 291 5,800 3,818 Climbing FlightAware ADS-B
Wed 09:37:32 PM -22.6950 -43.1170 43° Northeast 238 274 8,100 5,127 Climbing FlightAware ADS-B
Wed 09:37:57 PM -22.6630 -43.1320 337° Northwest 213 245 10,500 3,785 Climbing FlightAware ADS-B
Wed 09:38:37 PM -22.6240 -43.1510 336° Northwest 241 277 12,200 1,906 Climbing FlightAware ADS-B
Wed 09:39:22 PM -22.5710 -43.1750 337° Northwest 308 354 13,200 1,341 Climbing FlightAware ADS-B
Wed 09:40:02 PM -22.5160 -43.2020 336° Northwest 357 411 14,100 1,976 Climbing FlightAware ADS-B
Wed 09:40:47 PM -22.4390 -43.2320 340° North 382 440 16,000 2,541 Climbing FlightAware ADS-B
Wed 09:41:27 PM -22.3690 -43.2430 352° North 391 450 17,700 2,325 Climbing FlightAware ADS-B
Wed 09:42:07 PM -22.2950 -43.2550 351° North 404 465 19,100 1,725 Climbing FlightAware ADS-B
Wed 09:42:47 PM -22.2370 -43.2650 351° North 405 466 20,000 1,950 Climbing FlightAware ADS-B
Wed 09:43:27 PM -22.1530 -43.2790 351° North 423 487 21,700 2,467 Climbing FlightAware ADS-B
Wed 09:44:17 PM -22.0740 -43.2920 351° North 416 479 23,700 1,657 Climbing FlightAware ADS-B
Wed 09:45:12 PM -21.9800 -43.3070 352° North 414 476 24,600 2,000 Climbing FlightAware ADS-B
Wed 09:46:02 PM -21.8790 -43.3240 351° North 410 472 27,200 1,733 Climbing FlightAware ADS-B
Wed 09:46:42 PM -21.8150 -43.3350 351° North 410 472 27,200  Level FlightAware ADS-B
Wed 09:47:32 PM -21.7350 -43.3480 351° North 410 472 27,200  Level FlightAware ADS-B
Wed 09:48:12 PM -21.6720 -43.3590 351° North 410 472 27,200  Level FlightAware ADS-B
Wed 09:48:52 PM -21.6080 -43.3700 351° North 410 472 27,200 1,271 Level FlightAware ADS-B
Wed 09:49:37 PM -21.4680 -43.3910 352° North 408 470 29,000 1,271 Climbing FlightAware ADS-B
Wed 09:50:17 PM -21.3790 -43.4060 351° North 408 470 29,000  Level FlightAware ADS-B
Wed 09:51:02 PM -21.2970 -43.4190 352° North 409 471 29,000  Level FlightAware ADS-B
Wed 09:51:42 PM -21.2200 -43.4320 351° North 409 471 29,000  Level FlightAware ADS-B
Wed 09:52:22 PM -21.1480 -43.4440 351° North 409 471 29,000  Level FlightAware ADS-B
Wed 09:53:07 PM -21.0610 -43.4580 351° North 409 471 29,000  Level FlightAware ADS-B
Wed 09:53:47 PM -20.9850 -43.4710 351° North 408 470 29,000  Level FlightAware ADS-B
Wed 09:54:27 PM -20.9110 -43.4830 351° North 408 470 29,000  Level FlightAware ADS-B
Wed 09:55:12 PM -20.8280 -43.4960 352° North 407 468 29,000  Level FlightAware ADS-B
Wed 09:55:52 PM -20.7590 -43.5070 352° North 407 468 29,000  Level FlightAware ADS-B
Wed 09:56:37 PM -20.6670 -43.5220 351° North 407 468 29,000  Level FlightAware ADS-B
Wed 09:57:22 PM -20.5810 -43.5360 351° North 406 467 29,000  Level FlightAware ADS-B
Wed 09:58:02 PM -20.5080 -43.5480 351° North 406 467 29,000  Level FlightAware ADS-B
Wed 09:58:42 PM -20.4320 -43.5600 352° North 407 468 29,000  Level FlightAware ADS-B
Wed 09:59:27 PM -20.3630 -43.5720 351° North 407 468 29,000 -706 Level FlightAware ADS-B
Wed 10:00:07 PM -20.2830 -43.5840 352° North 412 474 28,000 -1,950 Descending FlightAware ADS-B
Wed 10:00:47 PM -20.1970 -43.5990 351° North 406 467 26,400 -2,188 Descending FlightAware ADS-B
Wed 10:01:32 PM -20.1170 -43.6110 352° North 400 460 24,900 -2,025 Descending FlightAware ADS-B
Wed 10:02:07 PM -20.0460 -43.6230 351° North 395 455 23,700 -2,025 Descending FlightAware ADS-B
Wed 10:02:52 PM -19.9650 -43.6360 351° North 391 450 22,200 -1,906 Descending FlightAware ADS-B
Wed 10:03:32 PM -19.9020 -43.6460 352° North 388 447 21,000 -1,800 Descending FlightAware ADS-B
Wed 10:04:32 PM -19.7940 -43.6640 351° North 371 427 19,200 -1,886 Descending FlightAware ADS-B
Wed 10:05:17 PM -19.7200 -43.6750 352° North 362 417 17,700 -2,118 Descending FlightAware ADS-B
Wed 10:05:57 PM -19.6520 -43.6860 351° North 360 414 16,200 -2,182 Descending FlightAware ADS-B
Wed 10:06:12 PM -19.6300 -43.6920 346° North 355 409 15,700 -1,800 Descending FlightAware ADS-B
Wed 10:06:27 PM -19.6110 -43.7060 325° Northwest 345 397 15,300 -2,618 Descending FlightAware ADS-B
Wed 10:07:07 PM -19.5620 -43.7560 316° Northwest 357 411 13,300 -2,700 Descending FlightAware ADS-B
Wed 10:07:47 PM -19.5150 -43.8050 315° West 350 403 11,700 -1,976 Descending FlightAware ADS-B
Wed 10:08:32 PM -19.4630 -43.8570 317° Northwest 324 373 10,500 -847 Descending FlightAware ADS-B
Wed 10:09:12 PM -19.4230 -43.8970 317° Northwest 275 316 10,500 -141 Level FlightAware ADS-B
Wed 10:09:57 PM -19.3850 -43.9350 317° Northwest 231 266 10,300 -514 Descending FlightAware ADS-B
Wed 10:10:22 PM -19.3670 -43.9550 314° West 222 255 9,900 -1,050 Descending FlightAware ADS-B
Wed 10:10:37 PM -19.3640 -43.9700 282° West 220 253 9,600 -1,000 Descending FlightAware ADS-B
Wed 10:10:52 PM -19.3710 -43.9850 244° Southwest 219 252 9,400 -933 Descending FlightAware ADS-B
Wed 10:11:22 PM -19.3900 -44.0080 229° Southwest 208 239 8,900 -1,200 Descending FlightAware ADS-B
Wed 10:11:47 PM -19.4060 -44.0290 231° Southwest 210 242 8,300 -1,418 Descending FlightAware ADS-B
Wed 10:12:17 PM -19.4240 -44.0520 230° Southwest 207 238 7,600 -1,333 Descending FlightAware ADS-B
Wed 10:12:32 PM -19.4360 -44.0600 212° Southwest 203 234 7,300 -1,680 Descending FlightAware ADS-B
Wed 10:12:42 PM -19.4450 -44.0640 203° Southwest 202 232 6,900 -2,250 Descending FlightAware ADS-B
Wed 10:13:12 PM -19.4690 -44.0780 209° Southwest 208 239 5,800 -1,964 Descending FlightAware ADS-B
Wed 10:13:37 PM -19.4920 -44.0880 202° Southwest 196 226 5,100 -1,091 Descending FlightAware ADS-B
Wed 10:14:07 PM -19.5140 -44.0780 157° South 164 189 4,800 -300 Descending FlightAware ADS-B
Wed 10:14:37 PM -19.5310 -44.0640 142° Southeast 150 173 4,800 -327 Level FlightAware ADS-B
Wed 10:15:02 PM -19.5440 -44.0520 139° Southeast 149 171 4,500 -764 Descending FlightAware ADS-B
Wed 10:15:32 PM -19.5590 -44.0380 139° Southeast 143 165 4,100 -800 Descending FlightAware ADS-B
Wed 10:16:02 PM -19.5740 -44.0240 139° Southeast 143 165 3,700 -764 Descending FlightAware ADS-B
Wed 10:16:27 PM -19.5870 -44.0120 139° Southeast 131 151 3,400 -655 Descending FlightAware ADS-B
Wed 10:16:57 PM -19.6000 -44.0000 139° Southeast 123 142 3,100 -600 Descending FlightAware ADS-B
Wed 10:17:27 PM -19.6120 -43.9890 139° Southeast 122 140 2,800 -700 Descending FlightAware ADS-B
Wed 10:17:57 PM -19.6260 -43.9760 139° Southeast 124 143 2,400 -800 Descending FlightAware ADS-B

Login

Don't have an account? Register now (free) for customized features, flight alerts, and more!